Ina Theresa — V7UJ2 — position and weather

sailwx.info

Track history (hours):
 
Tides and Currents Weather Stations Pressure Air Temp Water Temp Dewpoint Dewpoint Depression Visibility Wind Speed Wind Dir Waves Ship Positions

Ina Theresa

Last reported at 2014-Jul-30 23:12 UTC. Time now 2014-Jul-31 03:27 UTC.
Position N 37°17' E 023°27'.

Length 122 m; draft 5.1 m.

Type: Ship. MMSI: 538004548.

Date/timePositionNaut miles runAvg speedWind from/ knotsBaromVisibWave heightAir tempDewpointWater temp
2014-Jul-30 23:12N 37°17' E 023°27'0 0.0
2014-Jul-30 22:24N 37°17' E 023°27'0 0.0
2014-Jul-30 21:24N 37°17' E 023°27'0 0.0
2014-Jul-30 20:30N 37°17' E 023°27'0 0.0
2014-Jul-30 19:24N 37°17' E 023°27'0 0.1
2014-Jul-30 18:12N 37°17' E 023°27'1 0.7
2014-Jul-30 16:32N 37°18' E 023°29'1010.0
2014-Jul-30 15:33N 37°23' E 023°40'1111.3
2014-Jul-30 14:33N 37°34' E 023°42'1111.4
2014-Jul-30 13:33N 37°45' E 023°39'1010.0
2014-Jul-30 12:31N 37°54' E 023°34'0 0.0
2014-Jul-30 11:31N 37°54' E 023°34'0 0.0
2014-Jul-30 10:31N 37°54' E 023°34'0 0.0
2014-Jul-30 09:31N 37°54' E 023°34'0 0.0
2014-Jul-30 08:31N 37°54' E 023°34'0 0.3
2014-Jul-30 07:33N 37°55' E 023°34'7 6.6
2014-Jul-30 06:33N 38°01' E 023°35'1 0.0
2014-Jul-28 06:33N 38°02' E 023°36'5 4.6
2014-Jul-28 05:33N 37°57' E 023°34'4 4.0
2014-Jul-28 04:33N 37°53' E 023°33'1 0.8
2014-Jul-28 03:33N 37°53' E 023°32'0 0.0
2014-Jul-28 02:33N 37°53' E 023°32'0 0.1
2014-Jul-28 01:33N 37°53' E 023°32'0 0.0
2014-Jul-28 00:33N 37°53' E 023°32'0 0.0
2014-Jul-27 23:33N 37°53' E 023°32'0 0.0
2014-Jul-27 22:33N 37°53' E 023°32'0 0.0
2014-Jul-27 21:33N 37°53' E 023°32'0 0.0
2014-Jul-27 20:33N 37°53' E 023°32'6 6.5
2014-Jul-27 19:33N 37°50' E 023°39'1312.5
2014-Jul-27 18:33N 37°39' E 023°46'1313.1
2014-Jul-27 17:33N 37°26' E 023°44'1313.3
2014-Jul-27 16:33N 37°13' E 023°43'1312.9
2014-Jul-27 15:34N 37°00' E 023°39'1413.0
2014-Jul-27 14:31N 36°48' E 023°31'1212.8
2014-Jul-27 13:33N 36°37' E 023°24'1312.6
2014-Jul-27 12:33N 36°26' E 023°16'37812.4
2014-Jul-26 06:04N 36°26' E 015°27'612.2
2014-Jul-26 05:33N 36°26' E 015°19'1212.2
2014-Jul-26 04:33N 36°26' E 015°04'1212.5
2014-Jul-26 03:34N 36°27' E 014°48'1212.3
2014-Jul-26 02:34N 36°28' E 014°33'1212.4
2014-Jul-26 01:34N 36°32' E 014°19'1212.2
2014-Jul-26 00:34N 36°35' E 014°04'1212.0
2014-Jul-25 23:34N 36°39' E 013°50'1211.9
2014-Jul-25 22:33N 36°43' E 013°36'1212.0
2014-Jul-25 21:34N 36°47' E 013°22'1211.8
2014-Jul-25 20:33N 36°50' E 013°08'1211.7
2014-Jul-25 19:34N 36°54' E 012°54'1212.0
2014-Jul-25 18:33N 36°57' E 012°39'1312.7
2014-Jul-25 17:33N 37°01' E 012°24'1212.5
2014-Jul-25 16:34N 37°05' E 012°09'1212.1
2014-Jul-25 15:33N 37°08' E 011°55'1712.0
2014-Jul-25 14:07N 37°14' E 011°34'712.0
2014-Jul-25 13:34N 37°16' E 011°26'1211.4
2014-Jul-25 12:32N 37°21' E 011°13'1111.0
2014-Jul-25 11:33N 37°26' E 011°01'1211.5
2014-Jul-25 10:31N 37°28' E 010°46'1211.9
2014-Jul-25 09:33N 37°32' E 010°33'1211.7
2014-Jul-25 08:33N 37°34' E 010°18'1212.0
2014-Jul-25 07:33N 37°34' E 010°03'1313.0
2014-Jul-25 06:33N 37°32' E 009°47'1313.0
2014-Jul-25 05:33N 37°29' E 009°31'1312.6
2014-Jul-25 04:32N 37°26' E 009°15'1212.5
2014-Jul-25 03:33N 37°23' E 008°60'1212.1
2014-Jul-25 02:32N 37°21' E 008°45'1212.0
2014-Jul-25 01:30N 37°19' E 008°29'1212.2
2014-Jul-25 00:33N 37°19' E 008°15'1212.4
2014-Jul-24 23:33N 37°19' E 007°59'1312.9
2014-Jul-24 22:33N 37°19' E 007°43'1313.0
2014-Jul-24 21:33N 37°19' E 007°26'1313.3
2014-Jul-24 20:33N 37°19' E 007°10'1311.7
2014-Jul-24 19:29N 37°19' E 006°54'2311.7
2014-Jul-24 17:31N 37°19' E 006°25'1111.6
2014-Jul-24 16:33N 37°19' E 006°11'1111.5
2014-Jul-24 15:33N 37°19' E 005°57'1111.3
2014-Jul-24 14:33N 37°19' E 005°43'1111.4
2014-Jul-24 13:33N 37°19' E 005°28'1212.4
2014-Jul-24 12:34N 37°19' E 005°13'1211.7
2014-Jul-24 11:34N 37°19' E 004°58'1111.5
2014-Jul-24 10:33N 37°19' E 004°44'1211.5
2014-Jul-24 09:32N 37°16' E 004°29'1111.7
2014-Jul-24 08:34N 37°14' E 004°15'1212.2
2014-Jul-24 07:33N 37°12' E 003°60'1412.4
2014-Jul-24 06:27N 37°10' E 003°43'1112.5
2014-Jul-24 05:33N 37°07' E 003°29'1312.7
2014-Jul-24 04:32N 37°05' E 003°13'1312.9
2014-Jul-24 03:33N 37°03' E 002°58'1313.1
2014-Jul-24 02:33N 37°00' E 002°41'1312.8
2014-Jul-24 01:33N 36°58' E 002°26'2612.5
2014-Jul-23 23:28N 36°53' E 001°54'1112.1
2014-Jul-23 22:33N 36°51' E 001°40'1212.2
2014-Jul-23 21:32N 36°48' E 001°25'1212.2
2014-Jul-23 20:33N 36°46' E 001°10'1211.7
2014-Jul-23 19:29N 36°44' E 000°55'1111.7
2014-Jul-23 18:33N 36°42' E 000°41'1212.2
2014-Jul-23 17:33N 36°40' E 000°26'1212.2
2014-Jul-23 16:33N 36°37' E 000°12'1212.0
2014-Jul-23 15:33N 36°35' W 000°03'1212.1
2014-Jul-23 14:33N 36°33' W 000°18'1212.3
2014-Jul-23 13:33N 36°30' W 000°33'1312.5
2014-Jul-23 12:33N 36°28' W 000°48'1312.3
2014-Jul-23 11:31N 36°26' W 001°04'1411.8
2014-Jul-23 10:20N 36°23' W 001°21'1011.6
2014-Jul-23 09:27N 36°21' W 001°33'1111.6
2014-Jul-23 08:33N 36°19' W 001°46'1211.8
2014-Jul-23 07:33N 36°17' W 002°00'1211.5
2014-Jul-23 06:33N 36°15' W 002°15'1111.2
2014-Jul-23 05:33N 36°14' W 002°28'14012.7
2014-Jul-22 18:31N 35°59' W 005°20'5112.2
2014-Jul-22 14:19N 35°56' W 006°23'1211.9
2014-Jul-22 13:19N 35°58' W 006°38'912.2
2014-Jul-22 12:33N 36°01' W 006°49'1211.9
2014-Jul-22 11:33N 36°03' W 007°03'1211.9
2014-Jul-22 10:33N 36°06' W 007°18'1212.1
2014-Jul-22 09:33N 36°09' W 007°32'1312.6
2014-Jul-22 08:33N 36°12' W 007°47'1912.6
2014-Jul-22 07:03N 36°16' W 008°10'1112.6
2014-Jul-22 06:12N 36°19' W 008°23'812.5
2014-Jul-22 05:33N 36°21' W 008°33'1212.2
2014-Jul-22 04:33N 36°24' W 008°47'1212.3
2014-Jul-22 03:33N 36°27' W 009°02'1211.9
2014-Jul-22 02:33N 36°29' W 009°17'1212.1
2014-Jul-22 01:33N 36°37' W 009°28'1212.5
2014-Jul-22 00:33N 36°47' W 009°38'1212.3
2014-Jul-21 23:33N 36°59' W 009°42'1212.4
2014-Jul-21 22:33N 37°11' W 009°45'1312.6
2014-Jul-21 21:33N 37°23' W 009°49'1313.1
2014-Jul-21 20:33N 37°36' W 009°52'312.9
2014-Jul-21 20:17N 37°39' W 009°53'1013.0
2014-Jul-21 19:33N 37°49' W 009°56'1312.7
2014-Jul-21 18:33N 38°01' W 009°60'1313.1
2014-Jul-21 17:33N 38°14' W 010°04'1313.2
2014-Jul-21 16:33N 38°26' W 010°07'1312.7
2014-Jul-21 15:33N 38°39' W 010°11'1612.8
2014-Jul-21 14:19N 38°55' W 010°12'  
Track history (hours):
 
Tides and Currents Weather Stations Pressure Air Temp Water Temp Dewpoint Dewpoint Depression Visibility Wind Speed Wind Dir Waves Ship Positions

Ina Theresa

Last reported at 2014-Jul-30 23:12 UTC. Time now 2014-Jul-31 03:27 UTC.
Position N 37°17' E 023°27'.

Length 122 m; draft 5.1 m.

Type: Ship. MMSI: 538004548.

Date/timePositionNaut miles runAvg speedWind from/ knotsBaromVisibWave heightAir tempDewpointWater temp
2014-Jul-30 23:12N 37°17' E 023°27'0 0.0
2014-Jul-30 22:24N 37°17' E 023°27'0 0.0
2014-Jul-30 21:24N 37°17' E 023°27'0 0.0
2014-Jul-30 20:30N 37°17' E 023°27'0 0.0
2014-Jul-30 19:24N 37°17' E 023°27'0 0.1
2014-Jul-30 18:12N 37°17' E 023°27'1 0.7
2014-Jul-30 16:32N 37°18' E 023°29'1010.0
2014-Jul-30 15:33N 37°23' E 023°40'1111.3
2014-Jul-30 14:33N 37°34' E 023°42'1111.4
2014-Jul-30 13:33N 37°45' E 023°39'1010.0
2014-Jul-30 12:31N 37°54' E 023°34'0 0.0
2014-Jul-30 11:31N 37°54' E 023°34'0 0.0
2014-Jul-30 10:31N 37°54' E 023°34'0 0.0
2014-Jul-30 09:31N 37°54' E 023°34'0 0.0
2014-Jul-30 08:31N 37°54' E 023°34'0 0.3
2014-Jul-30 07:33N 37°55' E 023°34'7 6.6
2014-Jul-30 06:33N 38°01' E 023°35'1 0.0
2014-Jul-28 06:33N 38°02' E 023°36'5 4.6
2014-Jul-28 05:33N 37°57' E 023°34'4 4.0
2014-Jul-28 04:33N 37°53' E 023°33'1 0.8
2014-Jul-28 03:33N 37°53' E 023°32'0 0.0
2014-Jul-28 02:33N 37°53' E 023°32'0 0.1
2014-Jul-28 01:33N 37°53' E 023°32'0 0.0
2014-Jul-28 00:33N 37°53' E 023°32'0 0.0
2014-Jul-27 23:33N 37°53' E 023°32'0 0.0
2014-Jul-27 22:33N 37°53' E 023°32'0 0.0
2014-Jul-27 21:33N 37°53' E 023°32'0 0.0
2014-Jul-27 20:33N 37°53' E 023°32'6 6.5
2014-Jul-27 19:33N 37°50' E 023°39'1312.5
2014-Jul-27 18:33N 37°39' E 023°46'1313.1
2014-Jul-27 17:33N 37°26' E 023°44'1313.3
2014-Jul-27 16:33N 37°13' E 023°43'1312.9
2014-Jul-27 15:34N 37°00' E 023°39'1413.0
2014-Jul-27 14:31N 36°48' E 023°31'1212.8
2014-Jul-27 13:33N 36°37' E 023°24'1312.6
2014-Jul-27 12:33N 36°26' E 023°16'37812.4
2014-Jul-26 06:04N 36°26' E 015°27'612.2
2014-Jul-26 05:33N 36°26' E 015°19'1212.2
2014-Jul-26 04:33N 36°26' E 015°04'1212.5
2014-Jul-26 03:34N 36°27' E 014°48'1212.3
2014-Jul-26 02:34N 36°28' E 014°33'1212.4
2014-Jul-26 01:34N 36°32' E 014°19'1212.2
2014-Jul-26 00:34N 36°35' E 014°04'1212.0
2014-Jul-25 23:34N 36°39' E 013°50'1211.9
2014-Jul-25 22:33N 36°43' E 013°36'1212.0
2014-Jul-25 21:34N 36°47' E 013°22'1211.8
2014-Jul-25 20:33N 36°50' E 013°08'1211.7
2014-Jul-25 19:34N 36°54' E 012°54'1212.0
2014-Jul-25 18:33N 36°57' E 012°39'1312.7
2014-Jul-25 17:33N 37°01' E 012°24'1212.5
2014-Jul-25 16:34N 37°05' E 012°09'1212.1
2014-Jul-25 15:33N 37°08' E 011°55'1712.0
2014-Jul-25 14:07N 37°14' E 011°34'712.0
2014-Jul-25 13:34N 37°16' E 011°26'1211.4
2014-Jul-25 12:32N 37°21' E 011°13'1111.0
2014-Jul-25 11:33N 37°26' E 011°01'1211.5
2014-Jul-25 10:31N 37°28' E 010°46'1211.9
2014-Jul-25 09:33N 37°32' E 010°33'1211.7
2014-Jul-25 08:33N 37°34' E 010°18'1212.0
2014-Jul-25 07:33N 37°34' E 010°03'1313.0
2014-Jul-25 06:33N 37°32' E 009°47'1313.0
2014-Jul-25 05:33N 37°29' E 009°31'1312.6
2014-Jul-25 04:32N 37°26' E 009°15'1212.5
2014-Jul-25 03:33N 37°23' E 008°60'1212.1
2014-Jul-25 02:32N 37°21' E 008°45'1212.0
2014-Jul-25 01:30N 37°19' E 008°29'1212.2
2014-Jul-25 00:33N 37°19' E 008°15'1212.4
2014-Jul-24 23:33N 37°19' E 007°59'1312.9
2014-Jul-24 22:33N 37°19' E 007°43'1313.0
2014-Jul-24 21:33N 37°19' E 007°26'1313.3
2014-Jul-24 20:33N 37°19' E 007°10'1311.7
2014-Jul-24 19:29N 37°19' E 006°54'2311.7
2014-Jul-24 17:31N 37°19' E 006°25'1111.6
2014-Jul-24 16:33N 37°19' E 006°11'1111.5
2014-Jul-24 15:33N 37°19' E 005°57'1111.3
2014-Jul-24 14:33N 37°19' E 005°43'1111.4
2014-Jul-24 13:33N 37°19' E 005°28'1212.4
2014-Jul-24 12:34N 37°19' E 005°13'1211.7
2014-Jul-24 11:34N 37°19' E 004°58'1111.5
2014-Jul-24 10:33N 37°19' E 004°44'1211.5
2014-Jul-24 09:32N 37°16' E 004°29'1111.7
2014-Jul-24 08:34N 37°14' E 004°15'1212.2
2014-Jul-24 07:33N 37°12' E 003°60'1412.4
2014-Jul-24 06:27N 37°10' E 003°43'1112.5
2014-Jul-24 05:33N 37°07' E 003°29'1312.7
2014-Jul-24 04:32N 37°05' E 003°13'1312.9
2014-Jul-24 03:33N 37°03' E 002°58'1313.1
2014-Jul-24 02:33N 37°00' E 002°41'1312.8
2014-Jul-24 01:33N 36°58' E 002°26'2612.5
2014-Jul-23 23:28N 36°53' E 001°54'1112.1
2014-Jul-23 22:33N 36°51' E 001°40'1212.2
2014-Jul-23 21:32N 36°48' E 001°25'1212.2
2014-Jul-23 20:33N 36°46' E 001°10'1211.7
2014-Jul-23 19:29N 36°44' E 000°55'1111.7
2014-Jul-23 18:33N 36°42' E 000°41'1212.2
2014-Jul-23 17:33N 36°40' E 000°26'1212.2
2014-Jul-23 16:33N 36°37' E 000°12'1212.0
2014-Jul-23 15:33N 36°35' W 000°03'1212.1
2014-Jul-23 14:33N 36°33' W 000°18'1212.3
2014-Jul-23 13:33N 36°30' W 000°33'1312.5
2014-Jul-23 12:33N 36°28' W 000°48'1312.3
2014-Jul-23 11:31N 36°26' W 001°04'1411.8
2014-Jul-23 10:20N 36°23' W 001°21'1011.6
2014-Jul-23 09:27N 36°21' W 001°33'1111.6
2014-Jul-23 08:33N 36°19' W 001°46'1211.8
2014-Jul-23 07:33N 36°17' W 002°00'1211.5
2014-Jul-23 06:33N 36°15' W 002°15'1111.2
2014-Jul-23 05:33N 36°14' W 002°28'14012.7
2014-Jul-22 18:31N 35°59' W 005°20'5112.2
2014-Jul-22 14:19N 35°56' W 006°23'1211.9
2014-Jul-22 13:19N 35°58' W 006°38'912.2
2014-Jul-22 12:33N 36°01' W 006°49'1211.9
2014-Jul-22 11:33N 36°03' W 007°03'1211.9
2014-Jul-22 10:33N 36°06' W 007°18'1212.1
2014-Jul-22 09:33N 36°09' W 007°32'1312.6
2014-Jul-22 08:33N 36°12' W 007°47'1912.6
2014-Jul-22 07:03N 36°16' W 008°10'1112.6
2014-Jul-22 06:12N 36°19' W 008°23'812.5
2014-Jul-22 05:33N 36°21' W 008°33'1212.2
2014-Jul-22 04:33N 36°24' W 008°47'1212.3
2014-Jul-22 03:33N 36°27' W 009°02'1211.9
2014-Jul-22 02:33N 36°29' W 009°17'1212.1
2014-Jul-22 01:33N 36°37' W 009°28'1212.5
2014-Jul-22 00:33N 36°47' W 009°38'1212.3
2014-Jul-21 23:33N 36°59' W 009°42'1212.4
2014-Jul-21 22:33N 37°11' W 009°45'1312.6
2014-Jul-21 21:33N 37°23' W 009°49'1313.1
2014-Jul-21 20:33N 37°36' W 009°52'312.9
2014-Jul-21 20:17N 37°39' W 009°53'1013.0
2014-Jul-21 19:33N 37°49' W 009°56'1312.7
2014-Jul-21 18:33N 38°01' W 009°60'1313.1
2014-Jul-21 17:33N 38°14' W 010°04'1313.2
2014-Jul-21 16:33N 38°26' W 010°07'1312.7
2014-Jul-21 15:33N 38°39' W 010°11'1612.8
2014-Jul-21 14:19N 38°55' W 010°12'  

Dump ship's entire track history